createdAt,value
2023-03-18T00:00:52.172Z,15.63
2023-03-18T00:03:19.020Z,15.66
2023-03-18T00:05:46.315Z,15.65
2023-03-18T00:08:13.213Z,15.66
2023-03-18T00:10:40.508Z,15.67
2023-03-18T00:13:07.281Z,15.70
2023-03-18T00:15:34.258Z,15.71
2023-03-18T00:18:01.155Z,15.73
2023-03-18T00:20:38.940Z,15.75
2023-03-18T00:23:08.426Z,15.76
2023-03-18T00:25:36.840Z,15.76
2023-03-18T00:28:07.618Z,15.74
2023-03-18T00:30:38.224Z,15.72
2023-03-18T00:33:05.253Z,15.68
2023-03-18T00:35:32.355Z,15.66
2023-03-18T00:38:00.409Z,15.66
2023-03-18T00:40:43.038Z,15.65
2023-03-18T00:43:12.507Z,15.65
2023-03-18T00:45:40.986Z,15.64
2023-03-18T00:48:08.862Z,15.65
2023-03-18T00:50:36.834Z,15.66
2023-03-18T00:53:04.212Z,15.66
2023-03-18T00:55:30.979Z,15.67
2023-03-18T00:57:57.870Z,15.66
2023-03-18T01:00:26.140Z,15.66
2023-03-18T01:02:54.130Z,15.68
2023-03-18T01:05:21.749Z,15.68
2023-03-18T01:07:48.884Z,15.68
2023-03-18T01:10:17.152Z,15.70
2023-03-18T01:12:46.517Z,15.71
2023-03-18T01:15:17.912Z,15.72
2023-03-18T01:17:45.884Z,15.72
2023-03-18T01:20:17.041Z,15.71
2023-03-18T01:22:44.819Z,15.68
2023-03-18T01:25:15.707Z,15.66
2023-03-18T01:27:43.305Z,15.64
2023-03-18T01:30:11.667Z,15.62
2023-03-18T01:32:38.497Z,15.60
2023-03-18T01:35:05.881Z,15.58
2023-03-18T01:37:33.413Z,15.57
2023-03-18T01:40:00.829Z,15.55
2023-03-18T01:42:27.875Z,15.54
2023-03-18T01:45:23.099Z,15.52
2023-03-18T01:47:50.586Z,15.48
2023-03-18T01:50:24.556Z,15.48
2023-03-18T01:53:15.345Z,15.46
2023-03-18T01:55:43.729Z,15.45
2023-03-18T01:58:19.964Z,15.46
2023-03-18T02:00:59.654Z,15.45
2023-03-18T02:03:28.570Z,15.43
2023-03-18T02:05:56.017Z,15.41
2023-03-18T02:08:23.390Z,15.42
2023-03-18T02:10:50.662Z,15.39
2023-03-18T02:13:18.490Z,15.38
2023-03-18T02:15:53.232Z,15.39
2023-03-18T02:18:35.157Z,15.38
2023-03-18T02:21:34.494Z,15.36
2023-03-18T02:24:28.750Z,15.33
2023-03-18T02:27:17.182Z,15.29
2023-03-18T02:29:44.561Z,15.28
2023-03-18T02:32:13.269Z,15.27
2023-03-18T02:34:42.381Z,15.26
2023-03-18T02:37:09.416Z,15.22
2023-03-18T02:39:36.266Z,15.20
2023-03-18T02:42:04.089Z,15.20
2023-03-18T02:44:31.593Z,15.19
2023-03-18T02:47:04.120Z,15.18
2023-03-18T02:49:32.573Z,15.17
2023-03-18T02:51:59.965Z,15.16
2023-03-18T02:54:30.427Z,15.16
2023-03-18T02:56:58.017Z,15.15
2023-03-18T02:59:25.568Z,15.13
2023-03-18T03:01:54.324Z,15.14
2023-03-18T03:04:23.843Z,15.13
2023-03-18T03:06:52.222Z,15.09
2023-03-18T03:09:19.803Z,15.07
2023-03-18T03:11:47.320Z,15.06
2023-03-18T03:14:16.242Z,15.03
2023-03-18T03:16:43.736Z,15.02
2023-03-18T03:19:10.659Z,14.98
2023-03-18T03:21:37.617Z,14.97
2023-03-18T03:24:06.544Z,14.97
2023-03-18T03:26:34.321Z,14.94
2023-03-18T03:29:01.141Z,14.92
2023-03-18T03:31:28.315Z,14.90
2023-03-18T03:33:55.219Z,14.88
2023-03-18T03:36:22.549Z,14.86
2023-03-18T03:38:49.333Z,14.86
2023-03-18T03:41:17.022Z,14.83
2023-03-18T03:43:44.786Z,14.80
2023-03-18T03:46:11.996Z,14.78
2023-03-18T03:48:39.666Z,14.76
2023-03-18T03:51:07.113Z,14.73
2023-03-18T03:53:34.671Z,14.71
2023-03-18T03:56:01.477Z,14.70
2023-03-18T03:58:29.068Z,14.68
2023-03-18T04:00:56.368Z,14.66
2023-03-18T04:03:23.658Z,14.64
2023-03-18T04:05:50.404Z,14.62
2023-03-18T04:08:17.183Z,14.61
2023-03-18T04:10:44.672Z,14.59
2023-03-18T04:13:11.535Z,14.58
2023-03-18T04:15:38.432Z,14.57
2023-03-18T04:18:07.060Z,14.54
2023-03-18T04:20:39.521Z,14.54
2023-03-18T04:23:07.317Z,14.55
2023-03-18T04:25:35.201Z,14.55
2023-03-18T04:28:02.297Z,14.53
2023-03-18T04:30:30.740Z,14.54
2023-03-18T04:32:57.853Z,14.54
2023-03-18T04:35:24.675Z,14.52
2023-03-18T04:37:51.493Z,14.50
2023-03-18T04:40:18.449Z,14.50
2023-03-18T04:42:47.658Z,14.49
2023-03-18T04:45:16.121Z,14.46
2023-03-18T04:47:44.290Z,14.46
2023-03-18T04:50:13.778Z,14.45
2023-03-18T04:52:41.299Z,14.44
2023-03-18T04:55:09.601Z,14.42
2023-03-18T04:57:38.344Z,14.40
2023-03-18T05:00:11.471Z,14.40
2023-03-18T05:02:39.842Z,14.39
2023-03-18T05:05:07.666Z,14.39
2023-03-18T05:07:34.589Z,14.38
2023-03-18T05:10:01.365Z,14.36
2023-03-18T05:12:28.141Z,14.34
2023-03-18T05:14:55.053Z,14.33
2023-03-18T05:17:21.823Z,14.32
2023-03-18T05:19:49.211Z,14.30
2023-03-18T05:22:18.998Z,14.29
2023-03-18T05:24:46.914Z,14.26
2023-03-18T05:27:17.433Z,14.24
2023-03-18T05:29:44.597Z,14.19
2023-03-18T05:32:12.594Z,14.16
2023-03-18T05:34:41.804Z,14.11
2023-03-18T05:37:11.592Z,14.06
2023-03-18T05:39:38.904Z,14.02
2023-03-18T05:42:06.605Z,13.98
2023-03-18T05:44:33.907Z,13.96
2023-03-18T05:47:01.651Z,13.93
2023-03-18T05:49:28.800Z,13.91
2023-03-18T05:51:55.717Z,13.89
2023-03-18T05:54:22.639Z,13.87
2023-03-18T05:56:52.312Z,13.88
2023-03-18T05:59:20.384Z,13.91
2023-03-18T06:01:48.979Z,13.94
2023-03-18T06:04:19.458Z,13.97
2023-03-18T06:06:46.829Z,14.00
2023-03-18T06:09:15.146Z,14.04
2023-03-18T06:11:41.986Z,14.05
2023-03-18T06:14:09.426Z,14.10
2023-03-18T06:16:37.070Z,14.13
2023-03-18T06:19:04.544Z,14.19
2023-03-18T06:21:32.971Z,14.23
2023-03-18T06:24:01.620Z,14.24
2023-03-18T06:26:28.563Z,14.27
2023-03-18T06:28:55.341Z,14.26
2023-03-18T06:31:22.457Z,14.28
2023-03-18T06:33:49.348Z,14.33
2023-03-18T06:36:16.714Z,14.39
2023-03-18T06:38:44.847Z,14.49
2023-03-18T06:41:12.107Z,14.58
2023-03-18T06:43:39.110Z,14.68
2023-03-18T06:46:06.022Z,14.83
2023-03-18T06:48:32.945Z,14.94
2023-03-18T06:51:00.229Z,15.02
2023-03-18T06:53:27.915Z,15.10
2023-03-18T06:55:56.622Z,15.17
2023-03-18T06:58:24.582Z,15.27
2023-03-18T07:00:51.775Z,15.37
2023-03-18T07:03:18.788Z,15.53
2023-03-18T07:05:45.531Z,15.66
2023-03-18T07:08:12.361Z,15.81
2023-03-18T07:10:39.539Z,15.92
2023-03-18T07:13:06.308Z,16.03
2023-03-18T07:15:34.109Z,16.15
2023-03-18T07:18:01.653Z,16.30
2023-03-18T07:20:29.613Z,16.47
2023-03-18T07:22:56.778Z,16.65
2023-03-18T07:25:23.529Z,16.83
2023-03-18T07:27:50.304Z,16.99
2023-03-18T07:30:17.986Z,17.07
2023-03-18T07:32:45.984Z,17.04
2023-03-18T07:35:14.155Z,17.02
2023-03-18T07:37:41.711Z,17.15
2023-03-18T07:40:11.662Z,17.34
2023-03-18T07:42:38.902Z,17.44
2023-03-18T07:45:07.726Z,17.42
2023-03-18T07:47:34.549Z,17.44
2023-03-18T07:50:01.571Z,17.56
2023-03-18T07:52:29.402Z,17.64
2023-03-18T07:54:56.305Z,17.65
2023-03-18T07:57:23.847Z,17.66
2023-03-18T07:59:50.877Z,17.66
2023-03-18T08:02:17.665Z,17.66
2023-03-18T08:04:46.622Z,17.62
2023-03-18T08:07:13.573Z,17.54
2023-03-18T08:09:40.394Z,17.46
2023-03-18T08:12:08.379Z,17.38
2023-03-18T08:14:35.381Z,17.38
2023-03-18T08:17:03.615Z,17.41
2023-03-18T08:19:30.485Z,17.39
2023-03-18T08:21:57.429Z,17.39
2023-03-18T08:24:24.543Z,17.38
2023-03-18T08:26:51.459Z,17.38
2023-03-18T08:29:18.225Z,17.41
2023-03-18T08:31:45.479Z,17.44
2023-03-18T08:34:12.354Z,17.46
2023-03-18T08:36:42.429Z,17.46
2023-03-18T08:39:12.638Z,17.45
2023-03-18T08:41:40.104Z,17.44
2023-03-18T08:44:08.339Z,17.47
2023-03-18T08:46:35.227Z,17.55
2023-03-18T08:49:02.080Z,17.63
2023-03-18T08:51:29.130Z,17.72
2023-03-18T08:53:56.169Z,17.82
2023-03-18T08:56:22.974Z,17.90
2023-03-18T08:58:49.736Z,17.97
2023-03-18T09:01:17.211Z,18.08
2023-03-18T09:03:44.708Z,18.23
2023-03-18T09:06:11.684Z,18.42
2023-03-18T09:08:39.484Z,18.59
2023-03-18T09:11:07.288Z,18.68
2023-03-18T09:13:34.144Z,18.70
2023-03-18T09:16:00.959Z,18.71
2023-03-18T09:18:28.170Z,18.69
2023-03-18T09:20:54.931Z,18.72
2023-03-18T09:23:22.422Z,18.76
2023-03-18T09:25:50.155Z,18.86
2023-03-18T09:28:16.973Z,18.90
2023-03-18T09:30:43.844Z,18.94
2023-03-18T09:33:11.554Z,18.98
2023-03-18T09:35:38.805Z,19.03
2023-03-18T09:38:07.268Z,19.10
2023-03-18T09:40:38.566Z,19.14
2023-03-18T09:43:20.537Z,19.20
2023-03-18T09:46:23.171Z,19.27
2023-03-18T09:49:28.196Z,19.27
2023-03-18T09:52:16.630Z,19.30
2023-03-18T09:54:56.461Z,19.32
2023-03-18T09:57:44.590Z,19.31
2023-03-18T10:00:24.312Z,19.27
2023-03-18T10:03:10.910Z,19.28
2023-03-18T10:06:10.946Z,19.32
2023-03-18T10:09:01.977Z,19.41
2023-03-18T10:14:49.795Z,19.65
2023-03-18T10:17:35.434Z,19.71
2023-03-18T10:20:19.098Z,19.66
2023-03-18T10:23:02.580Z,19.58
2023-03-18T10:25:54.627Z,19.49
2023-03-18T10:28:45.990Z,19.48
2023-03-18T10:31:45.611Z,19.54
2023-03-18T10:34:29.007Z,19.67
2023-03-18T10:37:06.812Z,19.75
2023-03-18T10:39:35.353Z,19.81
2023-03-18T10:42:23.012Z,19.95
2023-03-18T10:44:51.324Z,20.04
2023-03-18T10:47:35.639Z,20.17
2023-03-18T10:50:19.120Z,20.24
2023-03-18T10:53:16.477Z,20.25
2023-03-18T10:55:57.707Z,20.24
2023-03-18T10:58:24.667Z,20.20
2023-03-18T11:00:51.881Z,20.22
2023-03-18T11:03:30.760Z,20.25
2023-03-18T11:06:03.169Z,20.29
2023-03-18T11:08:39.617Z,20.34
2023-03-18T11:11:33.094Z,20.45
2023-03-18T11:14:03.152Z,20.53
2023-03-18T11:16:42.521Z,20.62
2023-03-18T11:19:31.974Z,20.72
2023-03-18T11:22:07.596Z,20.79
2023-03-18T11:24:43.776Z,20.87
2023-03-18T11:27:16.731Z,20.95
2023-03-18T11:29:49.888Z,21.07
2023-03-18T11:32:28.857Z,21.16
2023-03-18T11:35:07.138Z,21.24
2023-03-18T11:37:41.146Z,21.28
2023-03-18T11:40:13.910Z,21.28
2023-03-18T11:42:46.146Z,21.27
2023-03-18T11:45:39.873Z,21.26
2023-03-18T11:48:30.391Z,21.24
2023-03-18T11:51:44.546Z,21.20
2023-03-18T11:54:28.460Z,21.19
2023-03-18T11:57:08.672Z,21.23
2023-03-18T12:00:13.341Z,21.27
2023-03-18T12:03:23.910Z,21.33
2023-03-18T12:06:07.812Z,21.37
2023-03-18T12:08:45.925Z,21.34
2023-03-18T12:11:28.527Z,21.32
2023-03-18T12:14:46.344Z,21.31
2023-03-18T12:17:59.397Z,21.29
2023-03-18T12:20:35.281Z,21.27
2023-03-18T12:23:42.356Z,21.26
2023-03-18T12:26:25.278Z,21.32
2023-03-18T12:29:28.134Z,21.39
2023-03-18T12:32:36.777Z,21.52
2023-03-18T12:35:39.058Z,21.62
2023-03-18T12:38:35.665Z,21.74
2023-03-18T12:41:30.872Z,21.84
2023-03-18T12:44:46.539Z,21.98
2023-03-18T12:47:28.351Z,22.10
2023-03-18T12:50:15.210Z,22.15
2023-03-18T12:52:49.477Z,22.13
2023-03-18T12:55:23.560Z,22.12
2023-03-18T12:57:57.711Z,22.14
2023-03-18T13:00:37.968Z,22.14
2023-03-18T13:03:47.437Z,22.06
2023-03-18T13:06:55.101Z,22.04
2023-03-18T13:09:48.672Z,22.05
2023-03-18T13:12:31.568Z,22.04
2023-03-18T13:15:21.057Z,22.05
2023-03-18T13:17:52.246Z,21.97
2023-03-18T13:20:27.346Z,21.87
2023-03-18T13:23:57.335Z,21.71
2023-03-18T13:26:57.061Z,21.59
2023-03-18T13:29:55.621Z,21.49
2023-03-18T13:33:08.290Z,21.42
2023-03-18T13:36:22.376Z,21.35
2023-03-18T13:39:04.753Z,21.30
2023-03-18T13:41:55.828Z,21.24
2023-03-18T13:44:33.960Z,21.23
2023-03-18T13:47:08.162Z,21.27
2023-03-18T13:49:39.565Z,21.28
2023-03-18T13:52:26.221Z,21.26
2023-03-18T13:54:53.525Z,21.23
2023-03-18T13:57:29.432Z,21.20
2023-03-18T14:00:23.375Z,21.18
2023-03-18T14:03:32.996Z,21.17
2023-03-18T14:06:09.027Z,21.16
2023-03-18T14:08:38.871Z,21.16
2023-03-18T14:11:17.733Z,21.16
2023-03-18T14:13:48.202Z,21.18
2023-03-18T14:16:20.294Z,21.22
2023-03-18T14:18:57.983Z,21.27
2023-03-18T14:21:28.760Z,21.32
2023-03-18T14:24:18.221Z,21.39
2023-03-18T14:27:09.065Z,21.48
2023-03-18T14:29:45.226Z,21.55
2023-03-18T14:32:39.637Z,21.59
2023-03-18T14:35:20.997Z,21.65
2023-03-18T14:38:10.170Z,21.72
2023-03-18T14:40:42.553Z,21.77
2023-03-18T14:43:36.598Z,21.81
2023-03-18T14:46:09.060Z,21.83
2023-03-18T14:48:35.896Z,21.91
2023-03-18T14:51:19.080Z,21.97
2023-03-18T14:54:04.803Z,22.05
2023-03-18T14:56:40.626Z,22.13
2023-03-18T14:59:17.420Z,22.14
2023-03-18T15:01:50.698Z,22.13
2023-03-18T15:04:23.958Z,22.13
2023-03-18T15:06:56.836Z,22.10
2023-03-18T15:09:28.346Z,22.05
2023-03-18T15:11:55.540Z,22.01
2023-03-18T15:14:30.694Z,21.98
2023-03-18T15:17:11.299Z,21.96
2023-03-18T15:19:38.138Z,21.89
2023-03-18T15:22:06.919Z,21.87
2023-03-18T15:24:34.231Z,21.83
2023-03-18T15:27:22.600Z,21.77
2023-03-18T15:29:55.716Z,21.74
2023-03-18T15:32:29.974Z,21.70
2023-03-18T15:35:08.003Z,21.67
2023-03-18T15:37:41.634Z,21.64
2023-03-18T15:40:23.563Z,21.61
2023-03-18T15:42:51.096Z,21.60
2023-03-18T15:45:25.988Z,21.60
2023-03-18T15:47:53.950Z,21.60
2023-03-18T15:50:34.252Z,21.60
2023-03-18T15:53:23.012Z,21.55
2023-03-18T15:55:57.327Z,21.49
2023-03-18T15:58:35.872Z,21.43
2023-03-18T16:01:03.086Z,21.36
2023-03-18T16:03:33.623Z,21.32
2023-03-18T16:06:01.972Z,21.25
2023-03-18T16:08:28.780Z,21.21
2023-03-18T16:10:58.545Z,21.16
2023-03-18T16:13:29.542Z,21.13
2023-03-18T16:15:56.723Z,21.09
2023-03-18T16:18:23.500Z,21.04
2023-03-18T16:20:51.084Z,21.01
2023-03-18T16:23:18.807Z,20.97
2023-03-18T16:25:48.732Z,20.92
2023-03-18T16:28:23.307Z,20.90
2023-03-18T16:30:52.590Z,20.83
2023-03-18T16:33:20.548Z,20.81
2023-03-18T16:36:00.585Z,20.77
2023-03-18T16:38:28.602Z,20.71
2023-03-18T16:40:57.269Z,20.66
2023-03-18T16:43:28.179Z,20.62
2023-03-18T16:46:02.099Z,20.59
2023-03-18T16:48:28.961Z,20.57
2023-03-18T16:50:57.480Z,20.55
2023-03-18T16:53:29.489Z,20.55
2023-03-18T16:56:04.529Z,20.55
2023-03-18T16:58:35.349Z,20.53
2023-03-18T17:01:07.215Z,20.50
2023-03-18T17:03:35.741Z,20.47
2023-03-18T17:06:02.695Z,20.43
2023-03-18T17:08:29.501Z,20.38
2023-03-18T17:10:59.438Z,20.33
2023-03-18T17:13:33.370Z,20.27
2023-03-18T17:16:00.273Z,20.19
2023-03-18T17:18:27.742Z,20.08
2023-03-18T17:20:54.666Z,20.00
2023-03-18T17:23:25.270Z,19.90
2023-03-18T17:26:02.684Z,19.81
2023-03-18T17:28:45.881Z,19.68
2023-03-18T17:31:13.533Z,19.57
2023-03-18T17:33:41.062Z,19.47
2023-03-18T17:36:08.620Z,19.39
2023-03-18T17:38:36.297Z,19.29
2023-03-18T17:41:07.301Z,19.21
2023-03-18T17:43:36.611Z,19.12
2023-03-18T17:46:05.058Z,19.03
2023-03-18T17:48:37.128Z,18.95
2023-03-18T17:51:14.219Z,18.88
2023-03-18T17:53:45.287Z,18.79
2023-03-18T17:56:15.666Z,18.71
2023-03-18T17:58:45.659Z,18.61
2023-03-18T18:01:28.684Z,18.54
2023-03-18T18:03:57.481Z,18.46
2023-03-18T18:06:29.945Z,18.39
2023-03-18T18:09:00.109Z,18.31
2023-03-18T18:11:33.071Z,18.24
2023-03-18T18:14:17.988Z,18.16
2023-03-18T18:16:46.565Z,18.10
2023-03-18T18:19:14.846Z,18.03
2023-03-18T18:21:43.634Z,17.97
2023-03-18T18:24:23.156Z,17.90
2023-03-18T18:26:50.957Z,17.85
2023-03-18T18:29:22.854Z,17.79
2023-03-18T18:31:50.982Z,17.73
2023-03-18T18:34:18.189Z,17.68
2023-03-18T18:36:45.029Z,17.63
2023-03-18T18:39:12.086Z,17.58
2023-03-18T18:41:38.911Z,17.54
2023-03-18T18:44:12.158Z,17.48
2023-03-18T18:46:39.203Z,17.43
2023-03-18T18:49:06.006Z,17.38
2023-03-18T18:51:33.058Z,17.35
2023-03-18T18:54:00.022Z,17.30
2023-03-18T18:56:36.754Z,17.26
2023-03-18T18:59:22.177Z,17.21
2023-03-18T19:01:56.761Z,17.17
2023-03-18T19:04:24.104Z,17.12
2023-03-18T19:06:52.350Z,17.08
2023-03-18T19:09:23.557Z,17.04
2023-03-18T19:11:51.763Z,16.98
2023-03-18T19:14:29.160Z,16.94
2023-03-18T19:17:01.834Z,16.89
2023-03-18T19:19:31.822Z,16.85
2023-03-18T19:21:59.114Z,16.83
2023-03-18T19:24:33.539Z,16.82
2023-03-18T19:27:02.454Z,16.73
2023-03-18T19:29:29.403Z,16.77
2023-03-18T19:31:56.621Z,16.77
2023-03-18T19:34:23.867Z,16.79
2023-03-18T19:36:54.380Z,16.83
2023-03-18T19:39:22.563Z,16.84
2023-03-18T19:41:50.982Z,16.86
2023-03-18T19:44:24.930Z,16.89
2023-03-18T19:46:55.389Z,16.92
2023-03-18T19:49:39.150Z,16.95
2023-03-18T19:52:40.976Z,16.97
2023-03-18T19:55:15.019Z,17.00
2023-03-18T19:57:44.917Z,17.02
2023-03-18T20:00:24.262Z,17.07
2023-03-18T20:02:51.853Z,17.08
2023-03-18T20:05:22.424Z,17.11
2023-03-18T20:07:50.323Z,17.12
2023-03-18T20:10:19.422Z,17.14
2023-03-18T20:12:51.003Z,17.15
2023-03-18T20:15:26.765Z,17.15
2023-03-18T20:17:53.947Z,17.15
2023-03-18T20:20:27.657Z,17.16
2023-03-18T20:23:01.845Z,17.17
2023-03-18T20:25:36.541Z,17.16
2023-03-18T20:28:05.070Z,17.17
2023-03-18T20:30:35.719Z,17.17
2023-03-18T20:33:05.729Z,17.18
2023-03-18T20:35:36.944Z,17.17
2023-03-18T20:38:30.263Z,17.13
2023-03-18T20:40:57.218Z,17.11
2023-03-18T20:43:27.739Z,17.09
2023-03-18T20:45:57.522Z,17.07
2023-03-18T20:48:24.691Z,17.08
2023-03-18T20:50:52.593Z,17.08
2023-03-18T20:53:23.602Z,17.09
2023-03-18T20:55:51.233Z,17.10
2023-03-18T20:58:24.323Z,17.09
2023-03-18T21:00:52.937Z,17.09
2023-03-18T21:03:33.453Z,17.10
2023-03-18T21:06:03.549Z,17.11
2023-03-18T21:08:31.728Z,17.14
2023-03-18T21:11:01.842Z,17.17
2023-03-18T21:13:38.519Z,17.20
2023-03-18T21:16:13.685Z,17.19
2023-03-18T21:18:41.999Z,17.20
2023-03-18T21:21:34.469Z,17.22
2023-03-18T21:24:31.650Z,17.21
2023-03-18T21:27:04.732Z,17.19
2023-03-18T21:29:32.835Z,17.20
2023-03-18T21:32:00.104Z,17.16
2023-03-18T21:34:26.905Z,17.14
2023-03-18T21:36:53.685Z,17.13
2023-03-18T21:39:21.208Z,17.13
2023-03-18T21:41:48.056Z,17.12
2023-03-18T21:44:14.827Z,17.10
2023-03-18T21:46:41.761Z,17.08
2023-03-18T21:49:08.574Z,17.05
2023-03-18T21:51:39.602Z,17.02
2023-03-18T21:54:19.288Z,17.01
2023-03-18T21:56:46.206Z,16.98
2023-03-18T21:59:13.037Z,16.98
2023-03-18T22:01:40.009Z,16.96
2023-03-18T22:04:06.937Z,16.94
2023-03-18T22:06:33.968Z,16.93
2023-03-18T22:09:00.770Z,16.89
2023-03-18T22:11:27.939Z,16.90
2023-03-18T22:13:55.102Z,16.90
2023-03-18T22:16:22.018Z,16.92
2023-03-18T22:18:48.972Z,16.90
2023-03-18T22:21:28.238Z,16.92
2023-03-18T22:23:57.919Z,16.92
2023-03-18T22:26:24.764Z,16.93
2023-03-18T22:28:51.590Z,16.92
2023-03-18T22:31:25.329Z,16.93
2023-03-18T22:33:52.171Z,16.92
2023-03-18T22:36:21.504Z,16.94
2023-03-18T22:38:48.676Z,16.94
2023-03-18T22:41:23.103Z,16.96
2023-03-18T22:43:50.346Z,16.90
2023-03-18T22:46:17.695Z,16.90
2023-03-18T22:48:44.573Z,16.89
2023-03-18T22:51:24.421Z,16.90
2023-03-18T22:53:53.306Z,16.89
2023-03-18T22:56:21.572Z,16.90
2023-03-18T22:58:48.356Z,16.89
2023-03-18T23:01:18.691Z,16.89
2023-03-18T23:03:47.707Z,16.87
2023-03-18T23:06:19.844Z,16.87
2023-03-18T23:08:47.257Z,16.84
2023-03-18T23:11:15.626Z,16.84
2023-03-18T23:13:49.681Z,16.84
2023-03-18T23:16:21.424Z,16.81
2023-03-18T23:18:49.038Z,16.79
2023-03-18T23:21:24.833Z,16.77
2023-03-18T23:23:52.559Z,16.72
2023-03-18T23:26:19.813Z,16.69
2023-03-18T23:28:46.866Z,16.64
2023-03-18T23:31:15.345Z,16.61
2023-03-18T23:33:42.712Z,16.58
2023-03-18T23:36:10.045Z,16.56
2023-03-18T23:38:37.673Z,16.54
2023-03-18T23:41:04.893Z,16.51
2023-03-18T23:43:31.757Z,16.50
2023-03-18T23:45:58.640Z,16.47
2023-03-18T23:48:25.581Z,16.47
2023-03-18T23:50:52.545Z,16.46
2023-03-18T23:53:19.346Z,16.46
2023-03-18T23:55:48.751Z,16.45
2023-03-18T23:58:15.935Z,16.44
